Springfield, IL (62701)

10:15 PM CDT on September 28, 2016 (GMT -0500)
Gietl Park / Northgate | | Change Station

Elev 591 ft 39.83 °N, 89.61 °W | Updated 12 seconds ago

Overcast
Overcast
56.7 °F
Feels Like 56.7 °F
N
0.0
Wind Variable Wind from WSW

Today
High -- | Low -- °F
--% Chance of Precip.
Yesterday
High -- | Low -- °F
Precip. -- in
Pressure 30.12 in
Visibility 10.0 miles
Clouds Mostly Cloudy 6500 ft
Overcast 9000 ft
Dew Point 50 °F
Humidity 79%
Rainfall 0.02 in
Snow Depth Not available.
6:52 AM 6:44 PM
Waning Crescent, 3% visible
METAR KSPI 290252Z 33008KT 10SM BKN065 OVC090 14/10 A3012 RMK AO2 SLP198 T01390100 51012
Pressure 30.12 in
Visibility 10.0 miles
Clouds Mostly Cloudy 6500 ft
Overcast 9000 ft
Dew Point 50 °F
Humidity 79%
Rainfall 0.02 in
Snow Depth Not available.
6:52 AM 6:44 PM
Waning Crescent, 3% visible
METAR KSPI 290252Z 33008KT 10SM BKN065 OVC090 14/10 A3012 RMK AO2 SLP198 T01390100 51012

10-Day Weather Forecast

Almanac

Astronomy

Sep. 28, 2016 Rise Set
Actual Time
Civil Twilight
Nautical Twilight
Astronomical Twilight
Moon
Length of Visible Light
Length of Day
Tomorrow will be .
, % of the Moon is Illuminated

Today's Extremes

State Highs State Lows

Community

WunderPhotos

Upload Photos

1,942,416 photos uploaded!

WunderBlog® & News

Nearby

Air Quality

  Air Quality AQ Index Pollutant
Not available.

Snow Depth

Station Depth Elevation

Earthquake Activity

City Distance Mag. Time & Date
Minimum magnitude displayed is 2.5.

Coastal Water Temperatures

Place Temperature

Stations

Nearby Weather Stations

Station Location Temp. Windchill Dew Point Humidity Wind Precip. Elev Updated Type
                   

Watches & Warnings

There are currently no watches in effect.